sensor_id;sensor_type;location;lat;lon;timestamp;P1;durP1;ratioP1;P2;durP2;ratioP2
74100;SDS011;62462;52.530;21.682;2023-12-07T00:01:41;93.90;;;30.75;;
74100;SDS011;62462;52.530;21.682;2023-12-07T00:04:06;81.63;;;27.73;;
74100;SDS011;62462;52.530;21.682;2023-12-07T00:06:32;83.47;;;27.15;;
74100;SDS011;62462;52.530;21.682;2023-12-07T00:08:58;88.88;;;27.02;;
74100;SDS011;62462;52.530;21.682;2023-12-07T00:11:26;102.95;;;33.17;;
74100;SDS011;62462;52.530;21.682;2023-12-07T00:13:52;100.68;;;31.83;;
74100;SDS011;62462;52.530;21.682;2023-12-07T00:16:17;73.72;;;24.75;;
74100;SDS011;62462;52.530;21.682;2023-12-07T00:18:43;66.10;;;21.70;;
74100;SDS011;62462;52.530;21.682;2023-12-07T00:21:09;71.10;;;23.80;;
74100;SDS011;62462;52.530;21.682;2023-12-07T00:23:35;69.35;;;23.55;;
74100;SDS011;62462;52.530;21.682;2023-12-07T00:26:02;100.97;;;31.13;;
74100;SDS011;62462;52.530;21.682;2023-12-07T00:28:29;85.68;;;27.52;;
74100;SDS011;62462;52.530;21.682;2023-12-07T00:30:55;101.22;;;31.73;;
74100;SDS011;62462;52.530;21.682;2023-12-07T00:33:21;91.03;;;28.08;;
74100;SDS011;62462;52.530;21.682;2023-12-07T00:35:47;81.25;;;25.38;;
74100;SDS011;62462;52.530;21.682;2023-12-07T00:38:13;75.93;;;24.63;;
74100;SDS011;62462;52.530;21.682;2023-12-07T00:40:38;77.60;;;24.27;;
74100;SDS011;62462;52.530;21.682;2023-12-07T00:43:05;67.03;;;24.73;;
74100;SDS011;62462;52.530;21.682;2023-12-07T00:45:32;60.60;;;20.25;;
74100;SDS011;62462;52.530;21.682;2023-12-07T00:47:57;63.15;;;20.67;;
74100;SDS011;62462;52.530;21.682;2023-12-07T00:50:23;55.58;;;19.15;;
74100;SDS011;62462;52.530;21.682;2023-12-07T00:52:49;61.05;;;19.85;;
74100;SDS011;62462;52.530;21.682;2023-12-07T00:55:14;58.67;;;19.40;;
74100;SDS011;62462;52.530;21.682;2023-12-07T00:57:40;55.53;;;18.67;;
74100;SDS011;62462;52.530;21.682;2023-12-07T01:00:06;62.72;;;19.20;;
74100;SDS011;62462;52.530;21.682;2023-12-07T01:02:33;57.15;;;17.10;;
74100;SDS011;62462;52.530;21.682;2023-12-07T01:04:59;53.85;;;17.52;;
74100;SDS011;62462;52.530;21.682;2023-12-07T01:07:25;53.22;;;16.63;;
74100;SDS011;62462;52.530;21.682;2023-12-07T01:09:51;59.10;;;17.95;;
74100;SDS011;62462;52.530;21.682;2023-12-07T01:12:16;53.72;;;17.75;;
74100;SDS011;62462;52.530;21.682;2023-12-07T01:14:42;56.28;;;17.13;;
74100;SDS011;62462;52.530;21.682;2023-12-07T01:17:08;53.17;;;17.20;;
74100;SDS011;62462;52.530;21.682;2023-12-07T01:19:33;61.20;;;18.25;;
74100;SDS011;62462;52.530;21.682;2023-12-07T01:21:59;57.35;;;17.10;;
74100;SDS011;62462;52.530;21.682;2023-12-07T01:24:25;50.00;;;16.63;;
74100;SDS011;62462;52.530;21.682;2023-12-07T01:26:50;49.15;;;16.42;;
74100;SDS011;62462;52.530;21.682;2023-12-07T01:29:16;54.13;;;17.02;;
74100;SDS011;62462;52.530;21.682;2023-12-07T01:31:43;59.05;;;18.35;;
74100;SDS011;62462;52.530;21.682;2023-12-07T01:34:09;76.40;;;25.35;;
74100;SDS011;62462;52.530;21.682;2023-12-07T01:36:35;68.30;;;22.73;;
74100;SDS011;62462;52.530;21.682;2023-12-07T01:39:00;66.65;;;23.63;;
74100;SDS011;62462;52.530;21.682;2023-12-07T01:41:26;69.78;;;22.88;;
74100;SDS011;62462;52.530;21.682;2023-12-07T01:43:52;67.05;;;22.02;;
74100;SDS011;62462;52.530;21.682;2023-12-07T01:46:17;65.97;;;19.65;;
74100;SDS011;62462;52.530;21.682;2023-12-07T01:48:43;56.20;;;19.20;;
74100;SDS011;62462;52.530;21.682;2023-12-07T01:51:13;56.03;;;18.98;;
74100;SDS011;62462;52.530;21.682;2023-12-07T01:53:40;47.65;;;16.40;;
74100;SDS011;62462;52.530;21.682;2023-12-07T01:56:05;55.78;;;17.02;;
74100;SDS011;62462;52.530;21.682;2023-12-07T01:58:33;55.13;;;16.55;;
74100;SDS011;62462;52.530;21.682;2023-12-07T02:00:59;50.88;;;15.90;;
74100;SDS011;62462;52.530;21.682;2023-12-07T02:03:25;48.25;;;15.18;;
74100;SDS011;62462;52.530;21.682;2023-12-07T02:05:52;49.15;;;15.80;;
74100;SDS011;62462;52.530;21.682;2023-12-07T02:08:18;44.85;;;15.88;;
74100;SDS011;62462;52.530;21.682;2023-12-07T02:10:44;50.20;;;15.85;;
74100;SDS011;62462;52.530;21.682;2023-12-07T02:13:10;45.20;;;15.13;;
74100;SDS011;62462;52.530;21.682;2023-12-07T02:15:35;53.97;;;16.10;;
74100;SDS011;62462;52.530;21.682;2023-12-07T02:21:17;46.55;;;15.35;;
74100;SDS011;62462;52.530;21.682;2023-12-07T02:23:47;52.35;;;16.45;;
74100;SDS011;62462;52.530;21.682;2023-12-07T02:26:20;51.35;;;16.08;;
74100;SDS011;62462;52.530;21.682;2023-12-07T02:28:47;50.70;;;16.63;;
74100;SDS011;62462;52.530;21.682;2023-12-07T02:31:13;46.15;;;15.55;;
74100;SDS011;62462;52.530;21.682;2023-12-07T02:33:39;45.97;;;15.45;;
74100;SDS011;62462;52.530;21.682;2023-12-07T02:36:04;45.85;;;15.85;;
74100;SDS011;62462;52.530;21.682;2023-12-07T02:38:30;48.38;;;15.77;;
74100;SDS011;62462;52.530;21.682;2023-12-07T02:40:57;40.08;;;14.48;;
74100;SDS011;62462;52.530;21.682;2023-12-07T02:43:25;45.67;;;15.30;;
74100;SDS011;62462;52.530;21.682;2023-12-07T02:45:52;45.72;;;15.40;;
74100;SDS011;62462;52.530;21.682;2023-12-07T02:48:17;40.28;;;15.02;;
74100;SDS011;62462;52.530;21.682;2023-12-07T02:50:46;44.45;;;15.65;;
74100;SDS011;62462;52.530;21.682;2023-12-07T02:53:12;43.75;;;15.07;;
74100;SDS011;62462;52.530;21.682;2023-12-07T02:55:38;45.97;;;16.23;;
74100;SDS011;62462;52.530;21.682;2023-12-07T02:58:03;41.63;;;13.07;;
74100;SDS011;62462;52.530;21.682;2023-12-07T03:00:30;41.40;;;14.75;;
74100;SDS011;62462;52.530;21.682;2023-12-07T03:02:55;47.45;;;14.70;;
74100;SDS011;62462;52.530;21.682;2023-12-07T03:05:21;41.95;;;14.52;;
74100;SDS011;62462;52.530;21.682;2023-12-07T03:07:48;43.65;;;14.77;;
74100;SDS011;62462;52.530;21.682;2023-12-07T03:10:13;40.83;;;14.45;;
74100;SDS011;62462;52.530;21.682;2023-12-07T03:12:39;36.47;;;13.80;;
74100;SDS011;62462;52.530;21.682;2023-12-07T03:15:05;41.90;;;15.07;;
74100;SDS011;62462;52.530;21.682;2023-12-07T03:17:31;41.70;;;15.05;;
74100;SDS011;62462;52.530;21.682;2023-12-07T03:19:57;43.00;;;14.73;;
74100;SDS011;62462;52.530;21.682;2023-12-07T03:22:22;44.70;;;14.18;;
74100;SDS011;62462;52.530;21.682;2023-12-07T03:24:50;39.85;;;14.65;;
74100;SDS011;62462;52.530;21.682;2023-12-07T03:27:17;39.10;;;13.65;;
74100;SDS011;62462;52.530;21.682;2023-12-07T03:29:43;41.10;;;14.65;;
74100;SDS011;62462;52.530;21.682;2023-12-07T03:32:09;37.45;;;13.07;;
74100;SDS011;62462;52.530;21.682;2023-12-07T03:34:34;35.63;;;13.55;;
74100;SDS011;62462;52.530;21.682;2023-12-07T03:37:00;37.38;;;13.93;;
74100;SDS011;62462;52.530;21.682;2023-12-07T03:39:26;41.15;;;14.32;;
74100;SDS011;62462;52.530;21.682;2023-12-07T03:41:52;40.25;;;14.68;;
74100;SDS011;62462;52.530;21.682;2023-12-07T03:44:18;37.58;;;14.13;;
74100;SDS011;62462;52.530;21.682;2023-12-07T03:46:43;39.03;;;13.65;;
74100;SDS011;62462;52.530;21.682;2023-12-07T03:49:09;39.83;;;14.60;;
74100;SDS011;62462;52.530;21.682;2023-12-07T03:51:35;43.33;;;15.52;;
74100;SDS011;62462;52.530;21.682;2023-12-07T03:54:02;44.00;;;15.55;;
74100;SDS011;62462;52.530;21.682;2023-12-07T03:56:29;40.67;;;14.93;;
74100;SDS011;62462;52.530;21.682;2023-12-07T03:58:55;40.40;;;14.18;;
74100;SDS011;62462;52.530;21.682;2023-12-07T04:01:25;35.85;;;14.50;;
74100;SDS011;62462;52.530;21.682;2023-12-07T04:03:52;34.33;;;13.50;;
74100;SDS011;62462;52.530;21.682;2023-12-07T04:06:18;43.40;;;14.75;;
74100;SDS011;62462;52.530;21.682;2023-12-07T04:08:44;36.35;;;14.70;;
74100;SDS011;62462;52.530;21.682;2023-12-07T04:11:11;41.78;;;14.93;;
74100;SDS011;62462;52.530;21.682;2023-12-07T04:13:37;38.83;;;14.80;;
74100;SDS011;62462;52.530;21.682;2023-12-07T04:16:03;42.13;;;17.20;;
74100;SDS011;62462;52.530;21.682;2023-12-07T04:18:29;39.13;;;14.27;;
74100;SDS011;62462;52.530;21.682;2023-12-07T04:20:55;34.55;;;14.90;;
74100;SDS011;62462;52.530;21.682;2023-12-07T04:23:20;34.67;;;13.13;;
74100;SDS011;62462;52.530;21.682;2023-12-07T04:25:46;49.00;;;16.80;;
74100;SDS011;62462;52.530;21.682;2023-12-07T04:28:12;46.85;;;17.52;;
74100;SDS011;62462;52.530;21.682;2023-12-07T04:30:38;45.03;;;16.23;;
74100;SDS011;62462;52.530;21.682;2023-12-07T04:33:04;42.25;;;17.30;;
74100;SDS011;62462;52.530;21.682;2023-12-07T04:35:30;41.33;;;14.77;;
74100;SDS011;62462;52.530;21.682;2023-12-07T04:37:56;40.15;;;14.88;;
74100;SDS011;62462;52.530;21.682;2023-12-07T04:40:21;43.63;;;16.90;;
74100;SDS011;62462;52.530;21.682;2023-12-07T04:42:47;40.95;;;15.98;;
74100;SDS011;62462;52.530;21.682;2023-12-07T04:45:13;39.90;;;15.35;;
74100;SDS011;62462;52.530;21.682;2023-12-07T04:47:40;45.92;;;17.45;;
74100;SDS011;62462;52.530;21.682;2023-12-07T04:50:06;40.92;;;16.40;;
74100;SDS011;62462;52.530;21.682;2023-12-07T04:52:32;38.00;;;15.38;;
74100;SDS011;62462;52.530;21.682;2023-12-07T04:54:59;43.25;;;16.25;;
74100;SDS011;62462;52.530;21.682;2023-12-07T04:57:25;40.33;;;16.17;;
74100;SDS011;62462;52.530;21.682;2023-12-07T04:59:50;41.22;;;16.33;;
74100;SDS011;62462;52.530;21.682;2023-12-07T05:02:16;42.25;;;17.52;;
74100;SDS011;62462;52.530;21.682;2023-12-07T05:04:42;43.00;;;18.50;;
74100;SDS011;62462;52.530;21.682;2023-12-07T05:07:10;41.13;;;16.10;;
74100;SDS011;62462;52.530;21.682;2023-12-07T05:09:36;37.55;;;17.48;;
74100;SDS011;62462;52.530;21.682;2023-12-07T05:12:02;37.25;;;14.85;;
74100;SDS011;62462;52.530;21.682;2023-12-07T05:14:28;38.72;;;14.93;;
74100;SDS011;62462;52.530;21.682;2023-12-07T05:16:55;32.17;;;14.45;;
74100;SDS011;62462;52.530;21.682;2023-12-07T05:19:22;34.90;;;14.05;;
74100;SDS011;62462;52.530;21.682;2023-12-07T05:21:48;40.72;;;16.40;;
74100;SDS011;62462;52.530;21.682;2023-12-07T05:24:13;39.65;;;15.77;;
74100;SDS011;62462;52.530;21.682;2023-12-07T05:26:43;36.20;;;15.52;;
74100;SDS011;62462;52.530;21.682;2023-12-07T05:29:11;34.50;;;15.48;;
74100;SDS011;62462;52.530;21.682;2023-12-07T05:31:37;43.75;;;19.05;;
74100;SDS011;62462;52.530;21.682;2023-12-07T05:34:03;45.70;;;19.73;;
74100;SDS011;62462;52.530;21.682;2023-12-07T05:36:30;49.40;;;20.98;;
74100;SDS011;62462;52.530;21.682;2023-12-07T05:38:56;38.40;;;15.95;;
74100;SDS011;62462;52.530;21.682;2023-12-07T05:41:22;35.67;;;15.15;;
74100;SDS011;62462;52.530;21.682;2023-12-07T05:43:48;33.95;;;15.45;;
74100;SDS011;62462;52.530;21.682;2023-12-07T05:46:13;38.38;;;15.55;;
74100;SDS011;62462;52.530;21.682;2023-12-07T05:48:40;35.08;;;15.52;;
74100;SDS011;62462;52.530;21.682;2023-12-07T05:51:11;34.17;;;15.30;;
74100;SDS011;62462;52.530;21.682;2023-12-07T05:53:39;53.35;;;22.98;;
74100;SDS011;62462;52.530;21.682;2023-12-07T05:56:05;52.72;;;24.25;;
74100;SDS011;62462;52.530;21.682;2023-12-07T05:58:30;51.17;;;24.20;;
74100;SDS011;62462;52.530;21.682;2023-12-07T06:00:57;49.80;;;20.80;;
74100;SDS011;62462;52.530;21.682;2023-12-07T06:03:25;49.67;;;21.30;;
74100;SDS011;62462;52.530;21.682;2023-12-07T06:05:51;39.97;;;19.00;;
74100;SDS011;62462;52.530;21.682;2023-12-07T06:08:17;39.40;;;18.23;;
74100;SDS011;62462;52.530;21.682;2023-12-07T06:10:42;39.95;;;17.75;;
74100;SDS011;62462;52.530;21.682;2023-12-07T06:13:08;41.90;;;18.20;;
74100;SDS011;62462;52.530;21.682;2023-12-07T06:15:34;39.10;;;16.67;;
74100;SDS011;62462;52.530;21.682;2023-12-07T06:18:00;42.13;;;17.73;;
74100;SDS011;62462;52.530;21.682;2023-12-07T06:20:26;40.15;;;17.58;;
74100;SDS011;62462;52.530;21.682;2023-12-07T06:22:52;44.78;;;18.73;;
74100;SDS011;62462;52.530;21.682;2023-12-07T06:25:17;43.05;;;18.90;;
74100;SDS011;62462;52.530;21.682;2023-12-07T06:27:43;45.42;;;19.05;;
74100;SDS011;62462;52.530;21.682;2023-12-07T06:30:09;49.05;;;20.50;;
74100;SDS011;62462;52.530;21.682;2023-12-07T06:32:35;45.65;;;20.65;;
74100;SDS011;62462;52.530;21.682;2023-12-07T06:35:02;40.00;;;18.33;;
74100;SDS011;62462;52.530;21.682;2023-12-07T06:37:29;44.95;;;19.80;;
74100;SDS011;62462;52.530;21.682;2023-12-07T06:39:55;47.67;;;20.20;;
74100;SDS011;62462;52.530;21.682;2023-12-07T06:42:21;40.40;;;19.25;;
74100;SDS011;62462;52.530;21.682;2023-12-07T06:44:47;41.53;;;19.23;;
74100;SDS011;62462;52.530;21.682;2023-12-07T06:47:16;49.65;;;20.92;;
74100;SDS011;62462;52.530;21.682;2023-12-07T06:49:42;46.25;;;20.08;;
74100;SDS011;62462;52.530;21.682;2023-12-07T06:52:07;45.75;;;20.75;;
74100;SDS011;62462;52.530;21.682;2023-12-07T06:54:34;47.63;;;23.13;;
74100;SDS011;62462;52.530;21.682;2023-12-07T06:56:59;51.95;;;24.02;;
74100;SDS011;62462;52.530;21.682;2023-12-07T06:59:25;54.00;;;25.88;;
74100;SDS011;62462;52.530;21.682;2023-12-07T07:01:51;54.85;;;26.20;;
74100;SDS011;62462;52.530;21.682;2023-12-07T07:04:17;56.60;;;27.60;;
74100;SDS011;62462;52.530;21.682;2023-12-07T07:06:43;78.53;;;32.03;;
74100;SDS011;62462;52.530;21.682;2023-12-07T07:09:09;65.43;;;26.95;;
74100;SDS011;62462;52.530;21.682;2023-12-07T07:11:35;79.50;;;29.77;;
74100;SDS011;62462;52.530;21.682;2023-12-07T07:14:02;74.95;;;29.63;;
74100;SDS011;62462;52.530;21.682;2023-12-07T07:16:27;71.50;;;25.60;;
74100;SDS011;62462;52.530;21.682;2023-12-07T07:18:53;53.53;;;21.73;;
74100;SDS011;62462;52.530;21.682;2023-12-07T07:21:19;52.78;;;22.05;;
74100;SDS011;62462;52.530;21.682;2023-12-07T07:23:45;58.47;;;23.42;;
74100;SDS011;62462;52.530;21.682;2023-12-07T07:26:11;52.67;;;22.58;;
74100;SDS011;62462;52.530;21.682;2023-12-07T07:28:41;47.97;;;21.35;;
74100;SDS011;62462;52.530;21.682;2023-12-07T07:31:07;45.88;;;19.90;;
74100;SDS011;62462;52.530;21.682;2023-12-07T07:33:33;51.55;;;21.02;;
74100;SDS011;62462;52.530;21.682;2023-12-07T07:35:59;53.30;;;21.58;;
74100;SDS011;62462;52.530;21.682;2023-12-07T07:38:24;54.55;;;22.63;;
74100;SDS011;62462;52.530;21.682;2023-12-07T07:40:50;50.20;;;20.83;;
74100;SDS011;62462;52.530;21.682;2023-12-07T07:43:16;52.85;;;22.08;;
74100;SDS011;62462;52.530;21.682;2023-12-07T07:45:41;46.90;;;20.00;;
74100;SDS011;62462;52.530;21.682;2023-12-07T07:48:07;52.35;;;21.95;;
74100;SDS011;62462;52.530;21.682;2023-12-07T07:50:33;49.70;;;21.73;;
74100;SDS011;62462;52.530;21.682;2023-12-07T07:53:01;51.80;;;22.17;;
74100;SDS011;62462;52.530;21.682;2023-12-07T07:55:27;60.17;;;28.95;;
74100;SDS011;62462;52.530;21.682;2023-12-07T07:57:53;68.70;;;32.92;;
74100;SDS011;62462;52.530;21.682;2023-12-07T08:00:19;65.63;;;28.60;;
74100;SDS011;62462;52.530;21.682;2023-12-07T08:02:45;63.55;;;29.02;;
74100;SDS011;62462;52.530;21.682;2023-12-07T08:05:12;53.55;;;26.77;;
74100;SDS011;62462;52.530;21.682;2023-12-07T08:07:38;48.00;;;22.33;;
74100;SDS011;62462;52.530;21.682;2023-12-07T08:10:05;50.72;;;22.85;;
74100;SDS011;62462;52.530;21.682;2023-12-07T08:12:32;54.78;;;23.23;;
74100;SDS011;62462;52.530;21.682;2023-12-07T08:14:58;54.03;;;23.23;;
74100;SDS011;62462;52.530;21.682;2023-12-07T08:17:24;51.03;;;22.33;;
74100;SDS011;62462;52.530;21.682;2023-12-07T08:19:51;50.58;;;23.13;;
74100;SDS011;62462;52.530;21.682;2023-12-07T08:22:17;49.88;;;22.20;;
74100;SDS011;62462;52.530;21.682;2023-12-07T08:24:43;54.08;;;24.63;;
74100;SDS011;62462;52.530;21.682;2023-12-07T08:27:08;56.45;;;23.25;;
74100;SDS011;62462;52.530;21.682;2023-12-07T08:29:34;58.72;;;25.30;;
74100;SDS011;62462;52.530;21.682;2023-12-07T08:32:00;60.88;;;26.20;;
74100;SDS011;62462;52.530;21.682;2023-12-07T08:34:26;63.28;;;28.38;;
74100;SDS011;62462;52.530;21.682;2023-12-07T08:36:51;65.55;;;27.95;;
74100;SDS011;62462;52.530;21.682;2023-12-07T08:39:17;63.80;;;26.27;;
74100;SDS011;62462;52.530;21.682;2023-12-07T08:41:43;58.92;;;23.83;;
74100;SDS011;62462;52.530;21.682;2023-12-07T08:44:08;52.95;;;23.38;;
74100;SDS011;62462;52.530;21.682;2023-12-07T08:46:34;49.50;;;22.38;;
74100;SDS011;62462;52.530;21.682;2023-12-07T08:49:00;55.83;;;24.45;;
74100;SDS011;62462;52.530;21.682;2023-12-07T08:51:27;64.22;;;29.02;;
74100;SDS011;62462;52.530;21.682;2023-12-07T08:53:53;58.72;;;25.05;;
74100;SDS011;62462;52.530;21.682;2023-12-07T08:56:19;49.80;;;22.50;;
74100;SDS011;62462;52.530;21.682;2023-12-07T08:58:45;52.75;;;21.90;;
74100;SDS011;62462;52.530;21.682;2023-12-07T09:01:11;54.65;;;23.17;;
74100;SDS011;62462;52.530;21.682;2023-12-07T09:03:37;50.88;;;22.35;;
74100;SDS011;62462;52.530;21.682;2023-12-07T09:06:03;44.78;;;19.88;;
74100;SDS011;62462;52.530;21.682;2023-12-07T09:08:30;51.13;;;23.33;;
74100;SDS011;62462;52.530;21.682;2023-12-07T09:10:56;51.88;;;22.75;;
74100;SDS011;62462;52.530;21.682;2023-12-07T09:13:21;60.67;;;27.27;;
74100;SDS011;62462;52.530;21.682;2023-12-07T09:15:47;49.63;;;23.98;;
74100;SDS011;62462;52.530;21.682;2023-12-07T09:18:13;51.75;;;23.63;;
74100;SDS011;62462;52.530;21.682;2023-12-07T09:20:41;57.38;;;26.10;;
74100;SDS011;62462;52.530;21.682;2023-12-07T09:23:14;48.85;;;21.73;;
74100;SDS011;62462;52.530;21.682;2023-12-07T09:25:41;46.40;;;21.77;;
74100;SDS011;62462;52.530;21.682;2023-12-07T09:28:07;47.65;;;22.27;;
74100;SDS011;62462;52.530;21.682;2023-12-07T09:30:33;58.38;;;26.67;;
74100;SDS011;62462;52.530;21.682;2023-12-07T09:32:59;48.53;;;21.98;;
74100;SDS011;62462;52.530;21.682;2023-12-07T09:35:27;49.95;;;23.60;;
74100;SDS011;62462;52.530;21.682;2023-12-07T09:37:53;43.92;;;21.23;;
74100;SDS011;62462;52.530;21.682;2023-12-07T09:40:20;49.33;;;23.30;;
74100;SDS011;62462;52.530;21.682;2023-12-07T09:42:46;42.85;;;20.98;;
74100;SDS011;62462;52.530;21.682;2023-12-07T09:45:13;59.78;;;22.33;;
74100;SDS011;62462;52.530;21.682;2023-12-07T09:47:43;51.08;;;22.95;;
74100;SDS011;62462;52.530;21.682;2023-12-07T09:50:13;46.90;;;22.38;;
74100;SDS011;62462;52.530;21.682;2023-12-07T09:52:51;50.17;;;23.45;;
74100;SDS011;62462;52.530;21.682;2023-12-07T09:55:19;56.28;;;24.63;;
74100;SDS011;62462;52.530;21.682;2023-12-07T09:57:47;50.72;;;23.95;;
74100;SDS011;62462;52.530;21.682;2023-12-07T10:00:13;47.88;;;22.25;;
74100;SDS011;62462;52.530;21.682;2023-12-07T10:02:40;55.40;;;23.30;;
74100;SDS011;62462;52.530;21.682;2023-12-07T10:05:11;53.90;;;24.75;;
74100;SDS011;62462;52.530;21.682;2023-12-07T10:07:42;53.83;;;23.80;;
74100;SDS011;62462;52.530;21.682;2023-12-07T10:10:08;52.92;;;22.40;;
74100;SDS011;62462;52.530;21.682;2023-12-07T10:12:45;54.20;;;26.98;;
74100;SDS011;62462;52.530;21.682;2023-12-07T10:15:24;56.03;;;25.08;;
74100;SDS011;62462;52.530;21.682;2023-12-07T10:17:51;46.97;;;22.08;;
74100;SDS011;62462;52.530;21.682;2023-12-07T10:20:22;62.53;;;28.10;;
74100;SDS011;62462;52.530;21.682;2023-12-07T10:23:08;60.85;;;28.83;;
74100;SDS011;62462;52.530;21.682;2023-12-07T10:28:04;84.93;;;36.53;;
74100;SDS011;62462;52.530;21.682;2023-12-07T10:30:32;46.33;;;22.15;;
74100;SDS011;62462;52.530;21.682;2023-12-07T10:32:58;51.25;;;23.88;;
74100;SDS011;62462;52.530;21.682;2023-12-07T10:35:24;60.15;;;28.92;;
74100;SDS011;62462;52.530;21.682;2023-12-07T10:37:50;60.63;;;27.70;;
74100;SDS011;62462;52.530;21.682;2023-12-07T10:40:16;56.63;;;25.75;;
74100;SDS011;62462;52.530;21.682;2023-12-07T10:42:46;49.33;;;24.17;;
74100;SDS011;62462;52.530;21.682;2023-12-07T10:45:14;58.03;;;28.90;;
74100;SDS011;62462;52.530;21.682;2023-12-07T10:47:40;50.47;;;23.23;;
74100;SDS011;62462;52.530;21.682;2023-12-07T10:50:09;56.20;;;27.40;;
74100;SDS011;62462;52.530;21.682;2023-12-07T10:52:45;55.75;;;26.98;;
74100;SDS011;62462;52.530;21.682;2023-12-07T10:55:20;56.47;;;24.27;;
74100;SDS011;62462;52.530;21.682;2023-12-07T10:57:49;59.65;;;28.88;;
74100;SDS011;62462;52.530;21.682;2023-12-07T11:00:18;49.78;;;23.23;;
74100;SDS011;62462;52.530;21.682;2023-12-07T11:02:49;42.47;;;21.35;;
74100;SDS011;62462;52.530;21.682;2023-12-07T11:05:17;49.05;;;22.38;;
74100;SDS011;62462;52.530;21.682;2023-12-07T11:11:05;43.42;;;21.55;;
74100;SDS011;62462;52.530;21.682;2023-12-07T11:13:22;51.40;;;24.52;;
74100;SDS011;62462;52.530;21.682;2023-12-07T11:15:55;46.13;;;22.90;;
74100;SDS011;62462;52.530;21.682;2023-12-07T11:18:24;53.50;;;24.80;;
74100;SDS011;62462;52.530;21.682;2023-12-07T11:20:51;55.38;;;24.42;;
74100;SDS011;62462;52.530;21.682;2023-12-07T11:23:19;46.63;;;23.65;;
74100;SDS011;62462;52.530;21.682;2023-12-07T11:25:46;54.65;;;23.75;;
74100;SDS011;62462;52.530;21.682;2023-12-07T11:28:12;45.10;;;22.15;;
74100;SDS011;62462;52.530;21.682;2023-12-07T11:30:41;54.70;;;23.30;;
74100;SDS011;62462;52.530;21.682;2023-12-07T11:33:09;56.22;;;24.80;;
74100;SDS011;62462;52.530;21.682;2023-12-07T11:38:27;52.20;;;23.38;;
74100;SDS011;62462;52.530;21.682;2023-12-07T11:40:53;51.28;;;23.02;;
74100;SDS011;62462;52.530;21.682;2023-12-07T11:46:00;52.67;;;23.95;;
74100;SDS011;62462;52.530;21.682;2023-12-07T11:48:26;51.03;;;23.75;;
74100;SDS011;62462;52.530;21.682;2023-12-07T11:50:55;54.75;;;24.35;;
74100;SDS011;62462;52.530;21.682;2023-12-07T11:53:22;56.28;;;26.77;;
74100;SDS011;62462;52.530;21.682;2023-12-07T11:55:51;46.50;;;24.40;;
74100;SDS011;62462;52.530;21.682;2023-12-07T11:58:17;49.58;;;22.85;;
74100;SDS011;62462;52.530;21.682;2023-12-07T12:00:44;53.72;;;24.02;;
74100;SDS011;62462;52.530;21.682;2023-12-07T12:03:11;60.05;;;27.63;;
74100;SDS011;62462;52.530;21.682;2023-12-07T12:05:38;60.50;;;26.75;;
74100;SDS011;62462;52.530;21.682;2023-12-07T12:08:05;55.50;;;24.77;;
74100;SDS011;62462;52.530;21.682;2023-12-07T12:10:31;56.15;;;25.38;;
74100;SDS011;62462;52.530;21.682;2023-12-07T12:13:00;79.57;;;35.28;;
74100;SDS011;62462;52.530;21.682;2023-12-07T12:15:29;58.67;;;26.23;;
74100;SDS011;62462;52.530;21.682;2023-12-07T12:17:56;177.75;;;38.38;;
74100;SDS011;62462;52.530;21.682;2023-12-07T12:20:22;167.25;;;43.63;;
74100;SDS011;62462;52.530;21.682;2023-12-07T12:22:52;51.70;;;23.27;;
74100;SDS011;62462;52.530;21.682;2023-12-07T12:25:19;58.78;;;26.65;;
74100;SDS011;62462;52.530;21.682;2023-12-07T12:27:47;56.75;;;25.63;;
74100;SDS011;62462;52.530;21.682;2023-12-07T12:30:14;60.60;;;26.70;;
74100;SDS011;62462;52.530;21.682;2023-12-07T12:32:45;61.17;;;26.80;;
74100;SDS011;62462;52.530;21.682;2023-12-07T12:35:12;65.88;;;27.42;;
74100;SDS011;62462;52.530;21.682;2023-12-07T12:37:40;51.80;;;24.30;;
74100;SDS011;62462;52.530;21.682;2023-12-07T12:40:08;55.33;;;24.65;;
74100;SDS011;62462;52.530;21.682;2023-12-07T12:42:35;80.18;;;30.52;;
74100;SDS011;62462;52.530;21.682;2023-12-07T12:45:03;62.95;;;25.98;;
74100;SDS011;62462;52.530;21.682;2023-12-07T12:47:30;55.15;;;24.45;;
74100;SDS011;62462;52.530;21.682;2023-12-07T12:49:56;81.03;;;30.42;;
74100;SDS011;62462;52.530;21.682;2023-12-07T12:52:23;69.00;;;27.60;;
74100;SDS011;62462;52.530;21.682;2023-12-07T12:54:50;121.57;;;39.50;;
74100;SDS011;62462;52.530;21.682;2023-12-07T12:57:17;55.53;;;24.92;;
74100;SDS011;62462;52.530;21.682;2023-12-07T12:59:44;54.17;;;24.48;;
74100;SDS011;62462;52.530;21.682;2023-12-07T13:02:10;57.90;;;27.63;;
74100;SDS011;62462;52.530;21.682;2023-12-07T13:04:36;54.55;;;25.52;;
74100;SDS011;62462;52.530;21.682;2023-12-07T13:07:02;50.78;;;23.27;;
74100;SDS011;62462;52.530;21.682;2023-12-07T13:09:28;46.17;;;21.48;;
74100;SDS011;62462;52.530;21.682;2023-12-07T13:11:54;51.67;;;24.20;;
74100;SDS011;62462;52.530;21.682;2023-12-07T13:14:19;51.35;;;23.17;;
74100;SDS011;62462;52.530;21.682;2023-12-07T13:16:45;49.17;;;22.65;;
74100;SDS011;62462;52.530;21.682;2023-12-07T13:19:11;50.60;;;24.08;;
74100;SDS011;62462;52.530;21.682;2023-12-07T13:21:36;49.28;;;23.23;;
74100;SDS011;62462;52.530;21.682;2023-12-07T13:24:03;51.47;;;22.92;;
74100;SDS011;62462;52.530;21.682;2023-12-07T13:26:30;49.78;;;22.73;;
74100;SDS011;62462;52.530;21.682;2023-12-07T13:28:56;54.20;;;24.10;;
74100;SDS011;62462;52.530;21.682;2023-12-07T13:31:22;56.22;;;25.25;;
74100;SDS011;62462;52.530;21.682;2023-12-07T13:33:48;67.53;;;28.08;;
74100;SDS011;62462;52.530;21.682;2023-12-07T13:36:15;52.42;;;24.75;;
74100;SDS011;62462;52.530;21.682;2023-12-07T13:38:45;57.17;;;25.85;;
74100;SDS011;62462;52.530;21.682;2023-12-07T13:41:12;51.03;;;22.85;;
74100;SDS011;62462;52.530;21.682;2023-12-07T13:43:37;52.80;;;24.92;;
74100;SDS011;62462;52.530;21.682;2023-12-07T13:46:03;57.95;;;24.98;;
74100;SDS011;62462;52.530;21.682;2023-12-07T13:48:29;53.58;;;25.30;;
74100;SDS011;62462;52.530;21.682;2023-12-07T13:50:55;58.35;;;25.25;;
74100;SDS011;62462;52.530;21.682;2023-12-07T13:53:21;51.45;;;23.88;;
74100;SDS011;62462;52.530;21.682;2023-12-07T13:55:47;51.13;;;24.50;;
74100;SDS011;62462;52.530;21.682;2023-12-07T13:58:13;51.42;;;23.30;;
74100;SDS011;62462;52.530;21.682;2023-12-07T14:00:38;53.63;;;24.70;;
74100;SDS011;62462;52.530;21.682;2023-12-07T14:03:04;52.92;;;24.15;;
74100;SDS011;62462;52.530;21.682;2023-12-07T14:05:29;51.72;;;23.65;;
74100;SDS011;62462;52.530;21.682;2023-12-07T14:07:55;51.45;;;22.73;;
74100;SDS011;62462;52.530;21.682;2023-12-07T14:10:21;52.95;;;22.63;;
74100;SDS011;62462;52.530;21.682;2023-12-07T14:12:47;51.83;;;22.55;;
74100;SDS011;62462;52.530;21.682;2023-12-07T14:15:13;55.17;;;24.95;;
74100;SDS011;62462;52.530;21.682;2023-12-07T14:17:39;57.67;;;27.13;;
74100;SDS011;62462;52.530;21.682;2023-12-07T14:20:04;53.22;;;27.23;;